sensor_id;sensor_type;location;lat;lon;timestamp;temperature;humidity
53695;DHT22;39588;51.124;7.190;2023-06-26T00:01:17;22.20;75.10
53695;DHT22;39588;51.124;7.190;2023-06-26T00:03:46;22.20;75.20
53695;DHT22;39588;51.124;7.190;2023-06-26T00:06:12;22.20;75.40
53695;DHT22;39588;51.124;7.190;2023-06-26T00:08:37;22.20;75.20
53695;DHT22;39588;51.124;7.190;2023-06-26T00:11:03;22.10;75.60
53695;DHT22;39588;51.124;7.190;2023-06-26T00:28:08;22.00;76.40
53695;DHT22;39588;51.124;7.190;2023-06-26T00:30:33;21.90;76.70
53695;DHT22;39588;51.124;7.190;2023-06-26T00:47:36;21.70;78.10
53695;DHT22;39588;51.124;7.190;2023-06-26T00:50:02;21.70;77.90
53695;DHT22;39588;51.124;7.190;2023-06-26T00:52:28;21.70;77.90
53695;DHT22;39588;51.124;7.190;2023-06-26T01:04:43;21.60;79.00
53695;DHT22;39588;51.124;7.190;2023-06-26T01:07:13;21.50;79.30
53695;DHT22;39588;51.124;7.190;2023-06-26T01:09:39;21.50;78.90
53695;DHT22;39588;51.124;7.190;2023-06-26T01:12:05;21.50;79.30
53695;DHT22;39588;51.124;7.190;2023-06-26T01:14:31;21.50;79.50
53695;DHT22;39588;51.124;7.190;2023-06-26T01:16:59;21.40;79.70
53695;DHT22;39588;51.124;7.190;2023-06-26T01:19:28;21.40;79.90
53695;DHT22;39588;51.124;7.190;2023-06-26T01:22:24;21.40;79.80
53695;DHT22;39588;51.124;7.190;2023-06-26T01:27:39;21.40;80.30
53695;DHT22;39588;51.124;7.190;2023-06-26T01:30:06;21.40;80.30
53695;DHT22;39588;51.124;7.190;2023-06-26T01:32:33;21.40;80.60
53695;DHT22;39588;51.124;7.190;2023-06-26T01:35:00;21.30;81.00
53695;DHT22;39588;51.124;7.190;2023-06-26T01:42:19;21.30;81.30
53695;DHT22;39588;51.124;7.190;2023-06-26T01:44:46;21.20;81.60
53695;DHT22;39588;51.124;7.190;2023-06-26T01:47:19;21.20;81.50
53695;DHT22;39588;51.124;7.190;2023-06-26T01:50:05;21.20;81.60
53695;DHT22;39588;51.124;7.190;2023-06-26T01:57:31;21.10;82.60
53695;DHT22;39588;51.124;7.190;2023-06-26T01:59:58;21.10;82.70
53695;DHT22;39588;51.124;7.190;2023-06-26T02:02:25;21.10;82.60
53695;DHT22;39588;51.124;7.190;2023-06-26T02:04:53;21.10;83.00
53695;DHT22;39588;51.124;7.190;2023-06-26T02:07:19;21.00;82.60
53695;DHT22;39588;51.124;7.190;2023-06-26T02:09:45;21.00;83.40
53695;DHT22;39588;51.124;7.190;2023-06-26T02:29:14;20.80;84.90
53695;DHT22;39588;51.124;7.190;2023-06-26T02:34:06;20.80;86.00
53695;DHT22;39588;51.124;7.190;2023-06-26T02:36:32;20.80;85.80
53695;DHT22;39588;51.124;7.190;2023-06-26T02:38:58;20.70;85.80
53695;DHT22;39588;51.124;7.190;2023-06-26T02:41:23;20.70;86.50
53695;DHT22;39588;51.124;7.190;2023-06-26T02:46:15;20.60;87.40
53695;DHT22;39588;51.124;7.190;2023-06-26T02:48:41;20.60;87.20
53695;DHT22;39588;51.124;7.190;2023-06-26T02:51:07;20.60;87.30
53695;DHT22;39588;51.124;7.190;2023-06-26T02:53:33;20.60;87.40
53695;DHT22;39588;51.124;7.190;2023-06-26T02:56:00;20.60;88.50
53695;DHT22;39588;51.124;7.190;2023-06-26T03:03:19;20.50;88.40
53695;DHT22;39588;51.124;7.190;2023-06-26T03:05:44;20.50;88.20
53695;DHT22;39588;51.124;7.190;2023-06-26T03:15:28;20.30;88.40
53695;DHT22;39588;51.124;7.190;2023-06-26T03:17:53;20.40;88.30
53695;DHT22;39588;51.124;7.190;2023-06-26T03:20:19;20.40;88.80
53695;DHT22;39588;51.124;7.190;2023-06-26T03:34:55;20.40;90.10
53695;DHT22;39588;51.124;7.190;2023-06-26T03:37:20;20.30;89.90
53695;DHT22;39588;51.124;7.190;2023-06-26T03:39:46;20.40;90.00
53695;DHT22;39588;51.124;7.190;2023-06-26T03:42:11;20.40;90.10
53695;DHT22;39588;51.124;7.190;2023-06-26T03:44:37;20.40;90.30
53695;DHT22;39588;51.124;7.190;2023-06-26T03:47:02;20.50;90.70
53695;DHT22;39588;51.124;7.190;2023-06-26T04:11:23;20.60;93.90
53695;DHT22;39588;51.124;7.190;2023-06-26T04:13:49;20.60;94.20
53695;DHT22;39588;51.124;7.190;2023-06-26T04:16:15;20.60;94.50
53695;DHT22;39588;51.124;7.190;2023-06-26T04:18:41;20.60;94.70
53695;DHT22;39588;51.124;7.190;2023-06-26T04:21:09;20.60;94.90
53695;DHT22;39588;51.124;7.190;2023-06-26T04:23:35;20.60;95.20
53695;DHT22;39588;51.124;7.190;2023-06-26T04:26:01;20.60;95.40
53695;DHT22;39588;51.124;7.190;2023-06-26T04:30:54;20.60;95.60
53695;DHT22;39588;51.124;7.190;2023-06-26T04:33:20;20.60;95.70
53695;DHT22;39588;51.124;7.190;2023-06-26T04:35:45;20.60;95.90
53695;DHT22;39588;51.124;7.190;2023-06-26T04:38:16;20.60;96.00
53695;DHT22;39588;51.124;7.190;2023-06-26T04:40:42;20.60;96.00
53695;DHT22;39588;51.124;7.190;2023-06-26T04:43:08;20.70;96.20
53695;DHT22;39588;51.124;7.190;2023-06-26T04:45:33;21.00;96.10
53695;DHT22;39588;51.124;7.190;2023-06-26T04:55:19;21.00;96.20
53695;DHT22;39588;51.124;7.190;2023-06-26T04:57:46;21.00;96.30
53695;DHT22;39588;51.124;7.190;2023-06-26T05:00:13;21.00;96.30
53695;DHT22;39588;51.124;7.190;2023-06-26T05:02:39;21.00;96.30
53695;DHT22;39588;51.124;7.190;2023-06-26T05:05:05;21.00;96.20
53695;DHT22;39588;51.124;7.190;2023-06-26T05:07:30;21.00;96.40
53695;DHT22;39588;51.124;7.190;2023-06-26T05:17:14;21.10;96.50
53695;DHT22;39588;51.124;7.190;2023-06-26T05:24:37;21.20;96.60
53695;DHT22;39588;51.124;7.190;2023-06-26T05:27:03;21.30;96.50
53695;DHT22;39588;51.124;7.190;2023-06-26T05:29:31;21.50;96.30
53695;DHT22;39588;51.124;7.190;2023-06-26T05:31:57;21.60;96.20
53695;DHT22;39588;51.124;7.190;2023-06-26T05:34:24;21.70;96.10
53695;DHT22;39588;51.124;7.190;2023-06-26T05:36:51;22.00;96.20
53695;DHT22;39588;51.124;7.190;2023-06-26T05:39:18;22.30;95.90
53695;DHT22;39588;51.124;7.190;2023-06-26T05:41:47;22.40;96.10
53695;DHT22;39588;51.124;7.190;2023-06-26T05:51:31;21.90;95.80
53695;DHT22;39588;51.124;7.190;2023-06-26T05:53:56;21.70;95.90
53695;DHT22;39588;51.124;7.190;2023-06-26T05:56:22;21.40;96.30
53695;DHT22;39588;51.124;7.190;2023-06-26T05:58:49;21.20;96.60
53695;DHT22;39588;51.124;7.190;2023-06-26T06:03:41;21.20;97.20
53695;DHT22;39588;51.124;7.190;2023-06-26T06:06:06;21.30;96.80
53695;DHT22;39588;51.124;7.190;2023-06-26T06:08:32;21.60;96.60
53695;DHT22;39588;51.124;7.190;2023-06-26T06:11:00;21.80;96.50
53695;DHT22;39588;51.124;7.190;2023-06-26T06:13:26;22.10;96.40
53695;DHT22;39588;51.124;7.190;2023-06-26T06:20:44;21.70;96.40
53695;DHT22;39588;51.124;7.190;2023-06-26T06:23:09;21.60;96.60
53695;DHT22;39588;51.124;7.190;2023-06-26T06:25:35;21.90;96.50
53695;DHT22;39588;51.124;7.190;2023-06-26T06:32:53;22.60;95.60
53695;DHT22;39588;51.124;7.190;2023-06-26T06:35:19;22.70;95.30
53695;DHT22;39588;51.124;7.190;2023-06-26T06:42:37;22.80;95.40
53695;DHT22;39588;51.124;7.190;2023-06-26T06:45:03;22.80;95.20
53695;DHT22;39588;51.124;7.190;2023-06-26T06:47:30;22.70;95.30
53695;DHT22;39588;51.124;7.190;2023-06-26T06:49:55;22.60;95.30
53695;DHT22;39588;51.124;7.190;2023-06-26T06:52:21;22.80;95.40
53695;DHT22;39588;51.124;7.190;2023-06-26T06:54:55;23.10;95.00
53695;DHT22;39588;51.124;7.190;2023-06-26T06:57:21;23.10;94.80
53695;DHT22;39588;51.124;7.190;2023-06-26T06:59:47;23.10;95.10
53695;DHT22;39588;51.124;7.190;2023-06-26T07:02:15;23.10;95.10
53695;DHT22;39588;51.124;7.190;2023-06-26T07:04:41;23.10;94.70
53695;DHT22;39588;51.124;7.190;2023-06-26T07:07:07;23.00;94.90
53695;DHT22;39588;51.124;7.190;2023-06-26T07:09:32;22.70;94.90
53695;DHT22;39588;51.124;7.190;2023-06-26T07:11:58;22.70;95.30
53695;DHT22;39588;51.124;7.190;2023-06-26T07:19:16;22.80;95.00
53695;DHT22;39588;51.124;7.190;2023-06-26T07:21:41;22.70;95.10
53695;DHT22;39588;51.124;7.190;2023-06-26T07:24:08;22.70;95.50
53695;DHT22;39588;51.124;7.190;2023-06-26T07:26:34;23.00;95.30
53695;DHT22;39588;51.124;7.190;2023-06-26T07:29:00;23.00;95.30
53695;DHT22;39588;51.124;7.190;2023-06-26T07:31:25;22.90;95.20
53695;DHT22;39588;51.124;7.190;2023-06-26T07:33:51;22.80;95.60
53695;DHT22;39588;51.124;7.190;2023-06-26T07:46:00;23.40;95.10
53695;DHT22;39588;51.124;7.190;2023-06-26T07:48:26;23.50;95.20
53695;DHT22;39588;51.124;7.190;2023-06-26T07:50:52;23.90;95.20
53695;DHT22;39588;51.124;7.190;2023-06-26T07:53:19;24.20;94.90
53695;DHT22;39588;51.124;7.190;2023-06-26T07:55:44;24.40;94.90
53695;DHT22;39588;51.124;7.190;2023-06-26T07:58:10;24.30;94.30
53695;DHT22;39588;51.124;7.190;2023-06-26T08:00:36;23.90;94.30
53695;DHT22;39588;51.124;7.190;2023-06-26T08:05:28;24.10;94.90
53695;DHT22;39588;51.124;7.190;2023-06-26T08:07:57;24.50;95.10
53695;DHT22;39588;51.124;7.190;2023-06-26T08:10:23;24.70;94.40
53695;DHT22;39588;51.124;7.190;2023-06-26T08:12:48;24.70;94.30
53695;DHT22;39588;51.124;7.190;2023-06-26T08:15:16;24.80;93.80
53695;DHT22;39588;51.124;7.190;2023-06-26T08:17:41;24.70;94.00
53695;DHT22;39588;51.124;7.190;2023-06-26T08:20:07;25.20;94.20
53695;DHT22;39588;51.124;7.190;2023-06-26T08:22:33;25.30;93.20
53695;DHT22;39588;51.124;7.190;2023-06-26T08:24:59;25.10;93.50
53695;DHT22;39588;51.124;7.190;2023-06-26T08:27:25;25.10;93.40
53695;DHT22;39588;51.124;7.190;2023-06-26T08:29:51;25.00;93.80
53695;DHT22;39588;51.124;7.190;2023-06-26T08:49:21;23.60;94.30
53695;DHT22;39588;51.124;7.190;2023-06-26T08:52:06;23.70;94.50
53695;DHT22;39588;51.124;7.190;2023-06-26T08:54:39;23.60;94.80
53695;DHT22;39588;51.124;7.190;2023-06-26T08:57:08;23.80;94.80
53695;DHT22;39588;51.124;7.190;2023-06-26T08:59:34;24.00;94.60
53695;DHT22;39588;51.124;7.190;2023-06-26T09:02:00;24.30;94.80
53695;DHT22;39588;51.124;7.190;2023-06-26T09:04:25;24.50;94.10
53695;DHT22;39588;51.124;7.190;2023-06-26T09:06:52;24.40;93.90
53695;DHT22;39588;51.124;7.190;2023-06-26T09:16:42;24.40;94.10
53695;DHT22;39588;51.124;7.190;2023-06-26T09:19:14;24.40;94.10
53695;DHT22;39588;51.124;7.190;2023-06-26T09:24:07;25.30;94.00
53695;DHT22;39588;51.124;7.190;2023-06-26T09:26:35;25.90;93.70
53695;DHT22;39588;51.124;7.190;2023-06-26T09:29:01;26.20;92.90
53695;DHT22;39588;51.124;7.190;2023-06-26T09:31:26;26.30;92.90
53695;DHT22;39588;51.124;7.190;2023-06-26T09:33:59;26.20;92.10
53695;DHT22;39588;51.124;7.190;2023-06-26T09:36:29;25.90;92.30
53695;DHT22;39588;51.124;7.190;2023-06-26T09:38:59;25.50;91.80
53695;DHT22;39588;51.124;7.190;2023-06-26T09:41:25;25.30;92.30
53695;DHT22;39588;51.124;7.190;2023-06-26T09:43:51;25.40;92.40
53695;DHT22;39588;51.124;7.190;2023-06-26T09:46:17;25.40;91.70
53695;DHT22;39588;51.124;7.190;2023-06-26T09:48:49;25.50;92.30
53695;DHT22;39588;51.124;7.190;2023-06-26T09:51:17;25.50;92.00
53695;DHT22;39588;51.124;7.190;2023-06-26T09:56:16;25.60;91.60
53695;DHT22;39588;51.124;7.190;2023-06-26T09:58:44;25.20;91.90
53695;DHT22;39588;51.124;7.190;2023-06-26T10:01:10;24.50;92.00
53695;DHT22;39588;51.124;7.190;2023-06-26T10:03:36;24.20;91.80
53695;DHT22;39588;51.124;7.190;2023-06-26T10:06:02;24.20;92.10
53695;DHT22;39588;51.124;7.190;2023-06-26T10:08:29;24.30;92.70
53695;DHT22;39588;51.124;7.190;2023-06-26T10:10:57;24.60;92.90
53695;DHT22;39588;51.124;7.190;2023-06-26T10:13:27;25.00;91.90
53695;DHT22;39588;51.124;7.190;2023-06-26T10:15:54;25.20;91.50
53695;DHT22;39588;51.124;7.190;2023-06-26T10:18:23;25.60;91.00
53695;DHT22;39588;51.124;7.190;2023-06-26T10:20:51;25.50;90.00
53695;DHT22;39588;51.124;7.190;2023-06-26T10:23:19;25.50;90.40
53695;DHT22;39588;51.124;7.190;2023-06-26T10:25:46;26.00;91.20
53695;DHT22;39588;51.124;7.190;2023-06-26T10:28:15;26.20;89.80
53695;DHT22;39588;51.124;7.190;2023-06-26T10:30:43;25.60;90.40
53695;DHT22;39588;51.124;7.190;2023-06-26T10:33:10;25.00;90.20
53695;DHT22;39588;51.124;7.190;2023-06-26T10:35:43;24.90;89.80
53695;DHT22;39588;51.124;7.190;2023-06-26T10:38:10;25.00;90.10
53695;DHT22;39588;51.124;7.190;2023-06-26T10:40:44;25.30;90.40
53695;DHT22;39588;51.124;7.190;2023-06-26T10:43:15;25.90;90.40
53695;DHT22;39588;51.124;7.190;2023-06-26T10:45:49;26.40;87.90
53695;DHT22;39588;51.124;7.190;2023-06-26T10:48:20;26.50;85.70
53695;DHT22;39588;51.124;7.190;2023-06-26T10:50:50;26.30;85.50
53695;DHT22;39588;51.124;7.190;2023-06-26T10:56:05;25.60;84.40
53695;DHT22;39588;51.124;7.190;2023-06-26T11:03:44;25.30;85.00
53695;DHT22;39588;51.124;7.190;2023-06-26T11:06:30;24.90;86.40
53695;DHT22;39588;51.124;7.190;2023-06-26T11:12:09;25.10;86.90
53695;DHT22;39588;51.124;7.190;2023-06-26T11:14:35;25.30;85.00
53695;DHT22;39588;51.124;7.190;2023-06-26T11:17:02;25.50;85.20
53695;DHT22;39588;51.124;7.190;2023-06-26T11:22:01;25.60;82.80
53695;DHT22;39588;51.124;7.190;2023-06-26T11:24:28;25.20;82.70
53695;DHT22;39588;51.124;7.190;2023-06-26T11:26:54;25.00;83.30
53695;DHT22;39588;51.124;7.190;2023-06-26T11:29:24;25.20;83.70
53695;DHT22;39588;51.124;7.190;2023-06-26T11:31:58;25.40;83.70
53695;DHT22;39588;51.124;7.190;2023-06-26T11:34:29;25.70;84.60
53695;DHT22;39588;51.124;7.190;2023-06-26T11:36:56;25.80;83.60
53695;DHT22;39588;51.124;7.190;2023-06-26T11:39:22;25.60;82.90
53695;DHT22;39588;51.124;7.190;2023-06-26T11:41:49;25.40;82.10
53695;DHT22;39588;51.124;7.190;2023-06-26T11:46:45;25.60;81.40
53695;DHT22;39588;51.124;7.190;2023-06-26T11:49:11;25.50;80.80
53695;DHT22;39588;51.124;7.190;2023-06-26T11:54:03;25.40;82.80
53695;DHT22;39588;51.124;7.190;2023-06-26T11:56:29;25.70;81.30
53695;DHT22;39588;51.124;7.190;2023-06-26T11:59:11;25.80;80.00
53695;DHT22;39588;51.124;7.190;2023-06-26T12:01:42;25.50;78.30
53695;DHT22;39588;51.124;7.190;2023-06-26T12:04:12;25.20;74.70
53695;DHT22;39588;51.124;7.190;2023-06-26T12:06:40;24.90;75.30
53695;DHT22;39588;51.124;7.190;2023-06-26T12:09:09;24.90;76.80
53695;DHT22;39588;51.124;7.190;2023-06-26T12:11:40;25.20;76.20
53695;DHT22;39588;51.124;7.190;2023-06-26T12:14:07;25.30;74.60
53695;DHT22;39588;51.124;7.190;2023-06-26T12:16:33;25.50;73.60
53695;DHT22;39588;51.124;7.190;2023-06-26T12:19:03;25.50;69.80
53695;DHT22;39588;51.124;7.190;2023-06-26T12:23:59;25.20;69.50
53695;DHT22;39588;51.124;7.190;2023-06-26T12:26:26;25.30;69.80
53695;DHT22;39588;51.124;7.190;2023-06-26T12:31:20;25.60;71.20
53695;DHT22;39588;51.124;7.190;2023-06-26T12:33:47;25.80;71.40
53695;DHT22;39588;51.124;7.190;2023-06-26T12:36:13;25.90;69.80
53695;DHT22;39588;51.124;7.190;2023-06-26T12:38:40;26.30;68.50
53695;DHT22;39588;51.124;7.190;2023-06-26T12:41:05;25.90;66.30
53695;DHT22;39588;51.124;7.190;2023-06-26T12:43:38;25.30;68.40
53695;DHT22;39588;51.124;7.190;2023-06-26T12:51:10;25.00;71.60
53695;DHT22;39588;51.124;7.190;2023-06-26T12:53:36;25.20;70.40
53695;DHT22;39588;51.124;7.190;2023-06-26T12:56:02;25.20;70.40
53695;DHT22;39588;51.124;7.190;2023-06-26T12:58:28;25.30;72.30
53695;DHT22;39588;51.124;7.190;2023-06-26T13:00:53;25.30;70.90
53695;DHT22;39588;51.124;7.190;2023-06-26T13:03:19;25.20;71.30
53695;DHT22;39588;51.124;7.190;2023-06-26T13:05:46;24.90;70.90
53695;DHT22;39588;51.124;7.190;2023-06-26T13:08:12;24.60;70.80
53695;DHT22;39588;51.124;7.190;2023-06-26T13:10:38;24.50;68.30
53695;DHT22;39588;51.124;7.190;2023-06-26T13:25:15;23.80;67.10
53695;DHT22;39588;51.124;7.190;2023-06-26T13:27:41;23.80;68.30
53695;DHT22;39588;51.124;7.190;2023-06-26T13:30:07;23.90;67.70
53695;DHT22;39588;51.124;7.190;2023-06-26T13:32:33;23.90;66.50
53695;DHT22;39588;51.124;7.190;2023-06-26T13:34:58;23.90;67.80
53695;DHT22;39588;51.124;7.190;2023-06-26T13:42:20;24.30;64.40
53695;DHT22;39588;51.124;7.190;2023-06-26T13:44:46;24.00;64.00
53695;DHT22;39588;51.124;7.190;2023-06-26T13:47:13;23.70;64.60
53695;DHT22;39588;51.124;7.190;2023-06-26T13:49:40;23.80;65.60
53695;DHT22;39588;51.124;7.190;2023-06-26T13:52:06;24.10;64.00
53695;DHT22;39588;51.124;7.190;2023-06-26T13:54:35;24.30;65.10
53695;DHT22;39588;51.124;7.190;2023-06-26T13:57:02;24.50;63.60
53695;DHT22;39588;51.124;7.190;2023-06-26T13:59:28;24.40;62.80
53695;DHT22;39588;51.124;7.190;2023-06-26T14:01:54;24.30;63.60
53695;DHT22;39588;51.124;7.190;2023-06-26T14:04:19;24.30;64.40
53695;DHT22;39588;51.124;7.190;2023-06-26T14:06:46;24.40;63.60
53695;DHT22;39588;51.124;7.190;2023-06-26T14:09:15;24.60;63.00
53695;DHT22;39588;51.124;7.190;2023-06-26T14:11:40;24.80;63.40
53695;DHT22;39588;51.124;7.190;2023-06-26T14:14:06;24.90;62.50
53695;DHT22;39588;51.124;7.190;2023-06-26T14:16:32;24.90;60.80
53695;DHT22;39588;51.124;7.190;2023-06-26T14:18:58;24.80;60.70
53695;DHT22;39588;51.124;7.190;2023-06-26T14:21:24;24.80;61.90
53695;DHT22;39588;51.124;7.190;2023-06-26T14:31:07;23.60;63.20
53695;DHT22;39588;51.124;7.190;2023-06-26T14:33:33;23.70;64.00
53695;DHT22;39588;51.124;7.190;2023-06-26T14:35:58;23.70;63.50
53695;DHT22;39588;51.124;7.190;2023-06-26T14:38:24;24.00;62.70
53695;DHT22;39588;51.124;7.190;2023-06-26T14:40:50;24.10;62.40
53695;DHT22;39588;51.124;7.190;2023-06-26T14:43:15;24.00;62.50
53695;DHT22;39588;51.124;7.190;2023-06-26T14:45:41;24.00;61.80
53695;DHT22;39588;51.124;7.190;2023-06-26T14:50:33;24.10;61.90
53695;DHT22;39588;51.124;7.190;2023-06-26T14:52:59;24.10;60.90
53695;DHT22;39588;51.124;7.190;2023-06-26T15:00:17;24.00;60.50
53695;DHT22;39588;51.124;7.190;2023-06-26T15:17:19;23.10;60.00
53695;DHT22;39588;51.124;7.190;2023-06-26T15:19:44;23.10;59.20
53695;DHT22;39588;51.124;7.190;2023-06-26T15:22:10;23.20;60.00
53695;DHT22;39588;51.124;7.190;2023-06-26T15:24:36;23.30;60.90
53695;DHT22;39588;51.124;7.190;2023-06-26T15:44:04;23.60;60.20
53695;DHT22;39588;51.124;7.190;2023-06-26T15:56:14;23.20;60.30
53695;DHT22;39588;51.124;7.190;2023-06-26T15:58:39;23.10;60.00
53695;DHT22;39588;51.124;7.190;2023-06-26T16:01:10;22.80;61.10
53695;DHT22;39588;51.124;7.190;2023-06-26T16:03:38;22.90;61.40
53695;DHT22;39588;51.124;7.190;2023-06-26T16:06:03;23.00;61.60
53695;DHT22;39588;51.124;7.190;2023-06-26T16:08:29;23.00;61.10
53695;DHT22;39588;51.124;7.190;2023-06-26T16:15:48;23.20;61.60
53695;DHT22;39588;51.124;7.190;2023-06-26T16:18:14;23.20;61.50
53695;DHT22;39588;51.124;7.190;2023-06-26T16:23:05;23.10;59.90
53695;DHT22;39588;51.124;7.190;2023-06-26T16:49:53;22.10;60.40
53695;DHT22;39588;51.124;7.190;2023-06-26T16:52:19;21.90;59.80
53695;DHT22;39588;51.124;7.190;2023-06-26T16:54:45;21.80;60.90
53695;DHT22;39588;51.124;7.190;2023-06-26T16:57:11;21.80;60.30
53695;DHT22;39588;51.124;7.190;2023-06-26T16:59:36;21.70;60.90
53695;DHT22;39588;51.124;7.190;2023-06-26T17:06:55;21.80;60.50
53695;DHT22;39588;51.124;7.190;2023-06-26T17:09:21;21.70;60.20
53695;DHT22;39588;51.124;7.190;2023-06-26T17:23:57;21.60;59.50
53695;DHT22;39588;51.124;7.190;2023-06-26T17:26:23;21.40;59.90
53695;DHT22;39588;51.124;7.190;2023-06-26T17:28:49;21.40;60.10
53695;DHT22;39588;51.124;7.190;2023-06-26T17:36:07;21.10;61.00
53695;DHT22;39588;51.124;7.190;2023-06-26T17:38:33;21.00;60.70
53695;DHT22;39588;51.124;7.190;2023-06-26T17:43:27;20.80;61.30
53695;DHT22;39588;51.124;7.190;2023-06-26T17:45:52;20.80;61.50
53695;DHT22;39588;51.124;7.190;2023-06-26T18:05:21;20.90;61.00
53695;DHT22;39588;51.124;7.190;2023-06-26T18:07:48;20.80;61.20
53695;DHT22;39588;51.124;7.190;2023-06-26T18:12:39;20.50;61.50
53695;DHT22;39588;51.124;7.190;2023-06-26T18:15:05;20.30;61.10
53695;DHT22;39588;51.124;7.190;2023-06-26T18:17:31;20.10;61.40
53695;DHT22;39588;51.124;7.190;2023-06-26T18:29:41;20.00;63.50
53695;DHT22;39588;51.124;7.190;2023-06-26T18:36:59;20.10;63.90
53695;DHT22;39588;51.124;7.190;2023-06-26T18:41:51;20.10;64.10
53695;DHT22;39588;51.124;7.190;2023-06-26T18:44:16;20.10;64.20
53695;DHT22;39588;51.124;7.190;2023-06-26T18:49:08;20.10;64.10
53695;DHT22;39588;51.124;7.190;2023-06-26T18:54:01;20.10;64.70
53695;DHT22;39588;51.124;7.190;2023-06-26T19:03:46;19.90;65.40
53695;DHT22;39588;51.124;7.190;2023-06-26T19:30:38;19.30;66.80
53695;DHT22;39588;51.124;7.190;2023-06-26T19:42:48;19.00;67.30
53695;DHT22;39588;51.124;7.190;2023-06-26T19:50:07;18.90;68.20
53695;DHT22;39588;51.124;7.190;2023-06-26T19:59:51;18.80;68.10
53695;DHT22;39588;51.124;7.190;2023-06-26T20:02:17;18.60;67.80
53695;DHT22;39588;51.124;7.190;2023-06-26T20:04:43;18.60;68.00
53695;DHT22;39588;51.124;7.190;2023-06-26T20:09:36;18.60;68.40
53695;DHT22;39588;51.124;7.190;2023-06-26T20:14:31;18.50;68.30
53695;DHT22;39588;51.124;7.190;2023-06-26T20:19:24;18.40;68.90
53695;DHT22;39588;51.124;7.190;2023-06-26T20:21:50;18.30;69.30
53695;DHT22;39588;51.124;7.190;2023-06-26T20:24:15;18.30;69.30
53695;DHT22;39588;51.124;7.190;2023-06-26T20:26:42;18.20;69.80
53695;DHT22;39588;51.124;7.190;2023-06-26T20:29:08;18.20;69.90
53695;DHT22;39588;51.124;7.190;2023-06-26T20:31:34;18.10;70.00
53695;DHT22;39588;51.124;7.190;2023-06-26T20:33:59;18.10;70.40
53695;DHT22;39588;51.124;7.190;2023-06-26T20:46:09;17.80;71.40
53695;DHT22;39588;51.124;7.190;2023-06-26T20:51:02;17.80;72.00
53695;DHT22;39588;51.124;7.190;2023-06-26T20:53:28;17.70;72.10
53695;DHT22;39588;51.124;7.190;2023-06-26T20:55:54;17.70;72.20
53695;DHT22;39588;51.124;7.190;2023-06-26T21:08:04;17.40;73.10
53695;DHT22;39588;51.124;7.190;2023-06-26T21:10:29;17.40;73.30
53695;DHT22;39588;51.124;7.190;2023-06-26T21:12:55;17.40;73.20
53695;DHT22;39588;51.124;7.190;2023-06-26T21:42:08;17.00;74.70
53695;DHT22;39588;51.124;7.190;2023-06-26T22:06:27;16.80;76.30
53695;DHT22;39588;51.124;7.190;2023-06-26T22:08:53;16.70;76.50
53695;DHT22;39588;51.124;7.190;2023-06-26T22:11:19;16.60;76.40
53695;DHT22;39588;51.124;7.190;2023-06-26T22:47:49;16.20;79.50
53695;DHT22;39588;51.124;7.190;2023-06-26T22:52:41;16.20;80.10
53695;DHT22;39588;51.124;7.190;2023-06-26T22:55:07;16.10;81.00
53695;DHT22;39588;51.124;7.190;2023-06-26T22:57:33;16.00;81.70
53695;DHT22;39588;51.124;7.190;2023-06-26T23:02:25;16.00;82.90
53695;DHT22;39588;51.124;7.190;2023-06-26T23:07:17;15.90;84.40
53695;DHT22;39588;51.124;7.190;2023-06-26T23:09:45;15.80;85.00
53695;DHT22;39588;51.124;7.190;2023-06-26T23:12:12;15.80;86.10
53695;DHT22;39588;51.124;7.190;2023-06-26T23:14:39;15.70;86.60
53695;DHT22;39588;51.124;7.190;2023-06-26T23:35:57;15.30;93.00
53695;DHT22;39588;51.124;7.190;2023-06-26T23:40:51;15.30;93.80
53695;DHT22;39588;51.124;7.190;2023-06-26T23:43:17;15.20;93.80
53695;DHT22;39588;51.124;7.190;2023-06-26T23:45:43;15.20;94.00
